Time,TemperatureF,DewpointF,PressureIn,WindDirection,WindDirectionDegrees,WindSpeedMPH,WindSpeedGustMPH,Humidity,HourlyPrecipIn,Conditions,Clouds,dailyrainin,SoftwareType,DateUTC
2013-09-21 00:10:00,67.2,66.0,29.81,NNE,30,0.0,0.0,95,0.02,,,0.00,weatherlink.com 1.10,2013-09-21 05:10:00,
2013-09-21 00:25:00,67.3,66.0,29.81,NW,316,0.0,1.0,95,0.02,,,0.00,weatherlink.com 1.10,2013-09-21 05:25:00,
2013-09-21 00:40:00,67.4,66.0,29.81,NW,316,0.0,0.0,95,0.02,,,0.01,weatherlink.com 1.10,2013-09-21 05:40:00,
2013-09-21 00:55:00,67.5,66.0,29.81,NW,316,0.0,0.0,95,0.01,,,0.01,weatherlink.com 1.10,2013-09-21 05:55:00,
2013-09-21 01:10:00,67.6,66.0,29.80,NW,316,0.0,0.0,95,0.02,,,0.02,weatherlink.com 1.10,2013-09-21 06:10:00,
2013-09-21 01:25:00,67.2,66.0,29.80,NW,313,5.0,6.0,95,0.02,,,0.02,weatherlink.com 1.10,2013-09-21 06:25:00,
2013-09-21 01:41:00,65.7,64.0,29.80,NW,322,0.0,8.0,93,0.01,,,0.02,weatherlink.com 1.10,2013-09-21 06:41:00,
2013-09-21 01:56:00,64.3,62.0,29.80,West,279,6.0,11.0,92,0.01,,,0.02,weatherlink.com 1.10,2013-09-21 06:56:00,
2013-09-21 02:11:00,63.8,62.0,29.80,NW,314,1.0,8.0,93,0.01,,,0.03,weatherlink.com 1.10,2013-09-21 07:11:00,
2013-09-21 02:26:00,63.8,62.0,29.81,NW,326,0.0,5.0,93,0.01,,,0.03,weatherlink.com 1.10,2013-09-21 07:26:00,
2013-09-21 02:41:00,63.7,62.0,29.81,NNE,19,0.0,7.0,93,0.01,,,0.03,weatherlink.com 1.10,2013-09-21 07:41:00,
2013-09-21 02:56:00,63.6,61.0,29.81,NNE,27,0.0,5.0,92,0.01,,,0.03,weatherlink.com 1.10,2013-09-21 07:56:00,
2013-09-21 03:11:00,63.3,61.0,29.81,West,269,0.0,8.0,91,0.01,,,0.04,weatherlink.com 1.10,2013-09-21 08:11:00,
2013-09-21 03:26:00,63.1,61.0,29.81,SW,230,1.0,4.0,91,0.01,,,0.04,weatherlink.com 1.10,2013-09-21 08:26:00,
2013-09-21 03:41:00,62.8,60.0,29.81,NW,309,1.0,6.0,91,0.01,,,0.04,weatherlink.com 1.10,2013-09-21 08:41:00,
2013-09-21 03:56:00,62.6,60.0,29.81,WNW,286,0.0,4.0,91,0.01,,,0.04,weatherlink.com 1.10,2013-09-21 08:56:00,
2013-09-21 04:11:00,62.3,59.0,29.82,NNW,332,0.0,5.0,90,0.00,,,0.04,weatherlink.com 1.10,2013-09-21 09:11:00,
2013-09-21 04:26:00,62.0,59.0,29.82,SSW,197,2.0,7.0,89,0.00,,,0.04,weatherlink.com 1.10,2013-09-21 09:26:00,
2013-09-21 04:41:00,61.6,59.0,29.82,West,261,0.0,2.0,90,0.00,,,0.04,weatherlink.com 1.10,2013-09-21 09:41:00,
2013-09-21 04:56:00,61.4,58.0,29.83,West,272,2.0,3.0,89,0.01,,,0.05,weatherlink.com 1.10,2013-09-21 09:56:00,
2013-09-21 05:11:00,61.1,57.0,29.83,NW,313,2.0,5.0,87,0.01,,,0.05,weatherlink.com 1.10,2013-09-21 10:11:00,
2013-09-21 05:27:00,60.6,57.0,29.83,WNW,303,1.0,4.0,88,0.01,,,0.05,weatherlink.com 1.10,2013-09-21 10:27:00,
2013-09-21 05:41:00,60.1,57.0,29.84,West,269,2.0,2.0,89,0.01,,,0.05,weatherlink.com 1.10,2013-09-21 10:41:00,
2013-09-21 05:56:00,59.7,56.0,29.84,NNE,27,0.0,3.0,88,0.00,,,0.05,weatherlink.com 1.10,2013-09-21 10:56:00,
2013-09-21 06:11:00,59.3,56.0,29.85,SSW,209,0.0,1.0,89,0.00,,,0.05,weatherlink.com 1.10,2013-09-21 11:11:00,
2013-09-21 06:26:00,58.7,56.0,29.86,NNW,329,0.0,3.0,89,0.00,,,0.05,weatherlink.com 1.10,2013-09-21 11:26:00,
2013-09-21 06:41:00,58.1,55.0,29.86,West,280,0.0,3.0,88,0.00,,,0.05,weatherlink.com 1.10,2013-09-21 11:41:00,
2013-09-21 06:56:00,57.6,54.0,29.87,NW,324,0.0,1.0,88,0.01,,,0.06,weatherlink.com 1.10,2013-09-21 11:56:00,
2013-09-21 07:11:00,57.1,54.0,29.87,NW,317,0.0,1.0,89,0.01,,,0.06,weatherlink.com 1.10,2013-09-21 12:11:00,
2013-09-21 07:26:00,57.0,54.0,29.88,WNW,301,0.0,2.0,90,0.01,,,0.06,weatherlink.com 1.10,2013-09-21 12:26:00,
2013-09-21 07:41:00,57.1,54.0,29.88,NW,306,0.0,2.0,90,0.01,,,0.06,weatherlink.com 1.10,2013-09-21 12:41:00,
2013-09-21 07:56:00,57.4,55.0,29.89,West,277,0.0,1.0,90,0.00,,,0.06,weatherlink.com 1.10,2013-09-21 12:56:00,
2013-09-21 08:11:00,58.3,55.0,29.89,NNW,330,2.0,4.0,89,0.00,,,0.06,weatherlink.com 1.10,2013-09-21 13:11:00,
2013-09-21 08:26:00,59.0,55.0,29.89,NNE,26,0.0,6.0,86,0.00,,,0.06,weatherlink.com 1.10,2013-09-21 13:26:00,
2013-09-21 08:41:00,60.1,55.0,29.89,NE,40,1.0,8.0,84,0.00,,,0.06,weatherlink.com 1.10,2013-09-21 13:41:00,
2013-09-21 08:57:00,60.6,56.0,29.89,NNW,338,3.0,7.0,84,0.00,,,0.06,weatherlink.com 1.10,2013-09-21 13:57:00,
2013-09-21 09:12:00,61.2,56.0,29.90,SW,223,2.0,5.0,83,0.00,,,0.06,weatherlink.com 1.10,2013-09-21 14:12:00,
2013-09-21 09:27:00,61.8,56.0,29.90,ENE,63,2.0,6.0,81,0.00,,,0.06,weatherlink.com 1.10,2013-09-21 14:27:00,
2013-09-21 09:42:00,62.3,56.0,29.90,NE,39,0.0,6.0,81,0.00,,,0.06,weatherlink.com 1.10,2013-09-21 14:42:00,
2013-09-21 09:57:00,62.7,56.0,29.90,NE,55,0.0,6.0,79,0.00,,,0.06,weatherlink.com 1.10,2013-09-21 14:57:00,
2013-09-21 10:12:00,63.7,55.0,29.90,WNW,292,2.0,8.0,74,0.00,,,0.06,weatherlink.com 1.10,2013-09-21 15:12:00,
2013-09-21 10:27:00,64.4,54.0,29.90,NNE,29,3.0,9.0,70,0.00,,,0.06,weatherlink.com 1.10,2013-09-21 15:27:00,
2013-09-21 10:42:00,64.9,54.0,29.90,ESE,114,1.0,7.0,68,0.00,,,0.06,weatherlink.com 1.10,2013-09-21 15:42:00,
2013-09-21 10:57:00,65.3,53.0,29.90,NNW,346,2.0,11.0,65,0.00,,,0.06,weatherlink.com 1.10,2013-09-21 15:57:00,
2013-09-21 11:12:00,65.6,53.0,29.90,East,86,6.0,9.0,64,0.00,,,0.06,weatherlink.com 1.10,2013-09-21 16:12:00,
2013-09-21 11:27:00,65.9,53.0,29.90,WNW,292,3.0,9.0,63,0.00,,,0.06,weatherlink.com 1.10,2013-09-21 16:27:00,
2013-09-21 11:42:00,66.3,52.0,29.90,WNW,291,5.0,11.0,61,0.00,,,0.06,weatherlink.com 1.10,2013-09-21 16:42:00,
2013-09-21 11:57:00,66.5,51.0,29.89,West,266,0.0,9.0,58,0.00,,,0.06,weatherlink.com 1.10,2013-09-21 16:57:00,
2013-09-21 12:12:00,66.9,52.0,29.89,WNW,295,3.0,9.0,59,0.00,,,0.06,weatherlink.com 1.10,2013-09-21 17:12:00,
2013-09-21 12:42:00,67.7,51.0,29.89,SW,228,2.0,7.0,55,0.00,,,0.06,weatherlink.com 1.10,2013-09-21 17:42:00,
2013-09-21 12:57:00,68.1,53.0,29.88,NW,321,2.0,7.0,59,0.01,,,0.07,weatherlink.com 1.10,2013-09-21 17:57:00,
2013-09-21 13:12:00,68.6,52.0,29.88,ESE,110,1.0,6.0,55,0.01,,,0.07,weatherlink.com 1.10,2013-09-21 18:12:00,
2013-09-21 13:27:00,68.9,55.0,29.87,West,280,2.0,7.0,62,0.01,,,0.07,weatherlink.com 1.10,2013-09-21 18:27:00,
2013-09-21 13:42:00,69.3,53.0,29.87,West,268,3.0,6.0,56,0.01,,,0.07,weatherlink.com 1.10,2013-09-21 18:42:00,
2013-09-21 13:57:00,69.7,53.0,29.86,West,267,2.0,7.0,55,0.00,,,0.07,weatherlink.com 1.10,2013-09-21 18:57:00,
2013-09-21 14:12:00,70.2,55.0,29.86,SSW,193,0.0,8.0,58,0.00,,,0.07,weatherlink.com 1.10,2013-09-21 19:12:00,
2013-09-21 14:27:00,71.0,53.0,29.86,WSW,255,4.0,7.0,54,0.00,,,0.07,weatherlink.com 1.10,2013-09-21 19:27:00,
2013-09-21 14:42:00,71.6,55.0,29.85,SW,218,1.0,7.0,56,0.00,,,0.07,weatherlink.com 1.10,2013-09-21 19:42:00,
2013-09-21 14:57:00,73.3,53.0,29.85,WNW,282,3.0,7.0,49,0.00,,,0.07,weatherlink.com 1.10,2013-09-21 19:57:00,
2013-09-21 15:12:00,74.3,54.0,29.84,SSW,200,0.0,5.0,49,0.00,,,0.07,weatherlink.com 1.10,2013-09-21 20:12:00,
2013-09-21 15:28:00,74.4,52.0,29.85,ENE,72,3.0,9.0,46,0.00,,,0.07,weatherlink.com 1.10,2013-09-21 20:28:00,
2013-09-21 15:42:00,74.7,52.0,29.84,NW,311,4.0,9.0,45,0.00,,,0.07,weatherlink.com 1.10,2013-09-21 20:42:00,
2013-09-21 15:57:00,75.5,53.0,29.84,NE,43,5.0,9.0,46,0.01,,,0.08,weatherlink.com 1.10,2013-09-21 20:57:00,
2013-09-21 16:12:00,73.6,50.0,29.84,SW,223,1.0,9.0,44,0.01,,,0.08,weatherlink.com 1.10,2013-09-21 21:12:00,
2013-09-21 16:27:00,72.8,52.0,29.84,NNW,340,4.0,5.0,48,0.01,,,0.08,weatherlink.com 1.10,2013-09-21 21:27:00,
2013-09-21 16:42:00,72.1,51.0,29.84,West,267,3.0,8.0,48,0.01,,,0.08,weatherlink.com 1.10,2013-09-21 21:42:00,
2013-09-21 16:57:00,71.4,51.0,29.84,WNW,297,0.0,4.0,49,0.00,,,0.08,weatherlink.com 1.10,2013-09-21 21:57:00,
2013-09-21 17:12:00,71.0,52.0,29.84,NNE,29,1.0,4.0,51,0.00,,,0.08,weatherlink.com 1.10,2013-09-21 22:12:00,
2013-09-21 17:27:00,70.6,52.0,29.84,NNW,343,0.0,5.0,53,0.00,,,0.08,weatherlink.com 1.10,2013-09-21 22:27:00,
2013-09-21 17:42:00,70.1,53.0,29.85,North,9,0.0,5.0,54,0.00,,,0.08,weatherlink.com 1.10,2013-09-21 22:42:00,
2013-09-21 17:57:00,69.3,53.0,29.85,NNE,27,0.0,5.0,56,0.00,,,0.08,weatherlink.com 1.10,2013-09-21 22:57:00,
2013-09-21 18:12:00,67.9,53.0,29.85,NNE,13,0.0,3.0,60,0.00,,,0.08,weatherlink.com 1.10,2013-09-21 23:12:00,
2013-09-21 18:27:00,66.6,55.0,29.86,North,351,0.0,2.0,66,0.00,,,0.08,weatherlink.com 1.10,2013-09-21 23:27:00,
2013-09-21 18:42:00,64.9,56.0,29.86,NNE,24,0.0,0.0,72,0.00,,,0.08,weatherlink.com 1.10,2013-09-21 23:42:00,
2013-09-21 18:57:00,63.0,55.0,29.86,NNE,24,0.0,0.0,74,0.00,,,0.08,weatherlink.com 1.10,2013-09-21 23:57:00,
2013-09-21 19:12:00,61.4,54.0,29.86,NNE,24,0.0,0.0,76,0.00,,,0.08,weatherlink.com 1.10,2013-09-22 00:12:00,
2013-09-21 19:27:00,60.1,54.0,29.86,NNE,24,0.0,0.0,80,0.00,,,0.08,weatherlink.com 1.10,2013-09-22 00:27:00,
2013-09-21 19:42:00,59.3,54.0,29.87,NNE,24,0.0,0.0,83,0.00,,,0.08,weatherlink.com 1.10,2013-09-22 00:42:00,
2013-09-21 19:57:00,58.4,54.0,29.88,NNE,24,0.0,0.0,85,0.00,,,0.08,weatherlink.com 1.10,2013-09-22 00:57:00,
2013-09-21 20:12:00,57.6,54.0,29.88,NNE,24,0.0,0.0,86,0.00,,,0.08,weatherlink.com 1.10,2013-09-22 01:12:00,
2013-09-21 20:28:00,56.8,53.0,29.88,NNE,24,0.0,0.0,87,0.00,,,0.08,weatherlink.com 1.10,2013-09-22 01:28:00,
2013-09-21 20:43:00,56.1,53.0,29.88,NNE,24,0.0,0.0,88,0.00,,,0.08,weatherlink.com 1.10,2013-09-22 01:43:00,
2013-09-21 20:58:00,55.5,52.0,29.89,NNE,24,0.0,0.0,89,0.00,,,0.08,weatherlink.com 1.10,2013-09-22 01:58:00,
2013-09-21 21:13:00,55.1,52.0,29.88,NNE,24,0.0,0.0,90,0.00,,,0.08,weatherlink.com 1.10,2013-09-22 02:13:00,
2013-09-21 21:28:00,54.9,52.0,29.89,NNE,24,0.0,0.0,91,0.00,,,0.08,weatherlink.com 1.10,2013-09-22 02:28:00,
2013-09-21 21:43:00,54.5,52.0,29.89,NNE,24,0.0,0.0,91,0.00,,,0.08,weatherlink.com 1.10,2013-09-22 02:43:00,
2013-09-21 21:58:00,54.2,52.0,29.89,NNE,24,0.0,0.0,91,0.00,,,0.08,weatherlink.com 1.10,2013-09-22 02:58:00,
2013-09-21 22:13:00,53.8,51.0,29.89,NNE,24,0.0,0.0,91,0.00,,,0.08,weatherlink.com 1.10,2013-09-22 03:13:00,
2013-09-21 22:28:00,53.6,51.0,29.89,NNE,24,0.0,0.0,92,0.00,,,0.08,weatherlink.com 1.10,2013-09-22 03:28:00,
2013-09-21 22:43:00,53.3,51.0,29.90,NNE,24,0.0,0.0,92,0.00,,,0.08,weatherlink.com 1.10,2013-09-22 03:43:00,
2013-09-21 22:58:00,53.0,51.0,29.89,NNE,24,0.0,0.0,92,0.00,,,0.08,weatherlink.com 1.10,2013-09-22 03:58:00,
2013-09-21 23:13:00,52.7,51.0,29.90,NNE,24,0.0,0.0,92,0.00,,,0.08,weatherlink.com 1.10,2013-09-22 04:13:00,
2013-09-21 23:28:00,52.4,50.0,29.90,NNE,24,0.0,0.0,92,0.00,,,0.08,weatherlink.com 1.10,2013-09-22 04:28:00,
2013-09-21 23:43:00,52.3,50.0,29.90,NNE,24,0.0,0.0,92,0.00,,,0.08,weatherlink.com 1.10,2013-09-22 04:43:00,
2013-09-21 23:58:00,52.0,50.0,29.90,NNE,24,0.0,0.0,92,0.00,,,0.08,weatherlink.com 1.10,2013-09-22 04:58:00,